sensor_id;sensor_type;location;lat;lon;timestamp;P1;durP1;ratioP1;P2;durP2;ratioP2
48122;SDS011;33907;47.426;18.906;2023-11-19T00:00:17;9.40;;;4.90;;
48122;SDS011;33907;47.426;18.906;2023-11-19T00:02:44;8.57;;;4.45;;
48122;SDS011;33907;47.426;18.906;2023-11-19T00:05:12;12.27;;;9.35;;
48122;SDS011;33907;47.426;18.906;2023-11-19T00:07:41;13.73;;;10.00;;
48122;SDS011;33907;47.426;18.906;2023-11-19T00:10:13;14.98;;;10.68;;
48122;SDS011;33907;47.426;18.906;2023-11-19T00:12:42;15.48;;;10.75;;
48122;SDS011;33907;47.426;18.906;2023-11-19T00:15:12;13.80;;;10.15;;
48122;SDS011;33907;47.426;18.906;2023-11-19T00:17:40;15.00;;;10.77;;
48122;SDS011;33907;47.426;18.906;2023-11-19T00:20:19;12.70;;;10.27;;
48122;SDS011;33907;47.426;18.906;2023-11-19T00:22:49;12.07;;;4.97;;
48122;SDS011;33907;47.426;18.906;2023-11-19T00:25:20;13.07;;;10.07;;
48122;SDS011;33907;47.426;18.906;2023-11-19T00:27:50;14.02;;;10.85;;
48122;SDS011;33907;47.426;18.906;2023-11-19T00:30:18;15.20;;;11.45;;
48122;SDS011;33907;47.426;18.906;2023-11-19T00:32:46;10.38;;;4.97;;
48122;SDS011;33907;47.426;18.906;2023-11-19T00:35:16;10.50;;;4.37;;
48122;SDS011;33907;47.426;18.906;2023-11-19T00:37:43;15.63;;;11.43;;
48122;SDS011;33907;47.426;18.906;2023-11-19T00:40:13;13.45;;;10.00;;
48122;SDS011;33907;47.426;18.906;2023-11-19T00:42:43;14.75;;;10.50;;
48122;SDS011;33907;47.426;18.906;2023-11-19T00:45:11;11.98;;;9.65;;
48122;SDS011;33907;47.426;18.906;2023-11-19T00:47:40;13.32;;;10.20;;
48122;SDS011;33907;47.426;18.906;2023-11-19T00:50:08;15.27;;;10.18;;
48122;SDS011;33907;47.426;18.906;2023-11-19T00:52:40;9.43;;;4.28;;
48122;SDS011;33907;47.426;18.906;2023-11-19T00:55:07;13.68;;;10.02;;
48122;SDS011;33907;47.426;18.906;2023-11-19T00:57:35;11.75;;;8.82;;
48122;SDS011;33907;47.426;18.906;2023-11-19T01:00:04;13.02;;;9.48;;
48122;SDS011;33907;47.426;18.906;2023-11-19T01:02:47;11.98;;;9.48;;
48122;SDS011;33907;47.426;18.906;2023-11-19T01:05:19;13.57;;;9.48;;
48122;SDS011;33907;47.426;18.906;2023-11-19T01:07:50;12.10;;;10.13;;
48122;SDS011;33907;47.426;18.906;2023-11-19T01:10:20;13.10;;;9.95;;
48122;SDS011;33907;47.426;18.906;2023-11-19T01:12:47;12.90;;;9.98;;
48122;SDS011;33907;47.426;18.906;2023-11-19T01:15:15;14.27;;;10.23;;
48122;SDS011;33907;47.426;18.906;2023-11-19T01:17:42;13.48;;;10.00;;
48122;SDS011;33907;47.426;18.906;2023-11-19T01:20:13;12.85;;;9.43;;
48122;SDS011;33907;47.426;18.906;2023-11-19T01:22:41;12.77;;;9.80;;
48122;SDS011;33907;47.426;18.906;2023-11-19T01:25:08;12.77;;;9.93;;
48122;SDS011;33907;47.426;18.906;2023-11-19T01:27:36;13.60;;;10.57;;
48122;SDS011;33907;47.426;18.906;2023-11-19T01:30:03;12.27;;;9.60;;
48122;SDS011;33907;47.426;18.906;2023-11-19T01:32:32;12.02;;;9.55;;
48122;SDS011;33907;47.426;18.906;2023-11-19T01:35:00;13.98;;;10.07;;
48122;SDS011;33907;47.426;18.906;2023-11-19T01:37:28;12.88;;;9.95;;
48122;SDS011;33907;47.426;18.906;2023-11-19T01:39:56;13.48;;;10.15;;
48122;SDS011;33907;47.426;18.906;2023-11-19T01:42:25;10.73;;;5.75;;
48122;SDS011;33907;47.426;18.906;2023-11-19T01:45:00;11.95;;;9.10;;
48122;SDS011;33907;47.426;18.906;2023-11-19T01:47:28;12.90;;;9.82;;
48122;SDS011;33907;47.426;18.906;2023-11-19T01:49:57;14.55;;;10.75;;
48122;SDS011;33907;47.426;18.906;2023-11-19T01:52:25;14.80;;;9.65;;
48122;SDS011;33907;47.426;18.906;2023-11-19T01:54:53;14.35;;;9.30;;
48122;SDS011;33907;47.426;18.906;2023-11-19T01:57:22;14.40;;;10.30;;
48122;SDS011;33907;47.426;18.906;2023-11-19T01:59:50;14.65;;;10.18;;
48122;SDS011;33907;47.426;18.906;2023-11-19T02:02:18;8.40;;;3.97;;
48122;SDS011;33907;47.426;18.906;2023-11-19T02:04:49;13.80;;;10.40;;
48122;SDS011;33907;47.426;18.906;2023-11-19T02:07:18;12.98;;;9.82;;
48122;SDS011;33907;47.426;18.906;2023-11-19T02:09:45;12.13;;;9.48;;
48122;SDS011;33907;47.426;18.906;2023-11-19T02:12:13;14.13;;;9.90;;
48122;SDS011;33907;47.426;18.906;2023-11-19T02:14:41;14.13;;;10.70;;
48122;SDS011;33907;47.426;18.906;2023-11-19T02:17:24;12.50;;;9.63;;
48122;SDS011;33907;47.426;18.906;2023-11-19T02:19:53;9.82;;;4.30;;
48122;SDS011;33907;47.426;18.906;2023-11-19T02:22:21;13.20;;;9.50;;
48122;SDS011;33907;47.426;18.906;2023-11-19T02:24:51;13.75;;;10.13;;
48122;SDS011;33907;47.426;18.906;2023-11-19T02:27:26;12.65;;;9.80;;
48122;SDS011;33907;47.426;18.906;2023-11-19T02:29:58;12.25;;;9.65;;
48122;SDS011;33907;47.426;18.906;2023-11-19T02:32:27;13.88;;;10.05;;
48122;SDS011;33907;47.426;18.906;2023-11-19T02:34:55;13.93;;;10.48;;
48122;SDS011;33907;47.426;18.906;2023-11-19T02:37:34;14.20;;;10.30;;
48122;SDS011;33907;47.426;18.906;2023-11-19T02:40:02;12.63;;;10.40;;
48122;SDS011;33907;47.426;18.906;2023-11-19T02:42:31;14.23;;;11.20;;
48122;SDS011;33907;47.426;18.906;2023-11-19T02:44:59;14.02;;;10.20;;
48122;SDS011;33907;47.426;18.906;2023-11-19T02:47:27;11.05;;;4.25;;
48122;SDS011;33907;47.426;18.906;2023-11-19T02:49:57;13.20;;;10.32;;
48122;SDS011;33907;47.426;18.906;2023-11-19T02:52:25;16.12;;;10.73;;
48122;SDS011;33907;47.426;18.906;2023-11-19T02:54:53;15.45;;;11.45;;
48122;SDS011;33907;47.426;18.906;2023-11-19T02:57:21;12.98;;;10.13;;
48122;SDS011;33907;47.426;18.906;2023-11-19T02:59:49;13.52;;;10.52;;
48122;SDS011;33907;47.426;18.906;2023-11-19T03:02:17;13.73;;;11.07;;
48122;SDS011;33907;47.426;18.906;2023-11-19T03:04:45;13.62;;;10.68;;
48122;SDS011;33907;47.426;18.906;2023-11-19T03:07:13;8.07;;;4.53;;
48122;SDS011;33907;47.426;18.906;2023-11-19T03:09:41;8.85;;;4.15;;
48122;SDS011;33907;47.426;18.906;2023-11-19T03:12:08;13.57;;;10.63;;
48122;SDS011;33907;47.426;18.906;2023-11-19T03:14:36;15.18;;;11.20;;
48122;SDS011;33907;47.426;18.906;2023-11-19T03:17:04;13.75;;;10.95;;
48122;SDS011;33907;47.426;18.906;2023-11-19T03:19:32;13.27;;;10.25;;
48122;SDS011;33907;47.426;18.906;2023-11-19T03:22:01;14.40;;;10.65;;
48122;SDS011;33907;47.426;18.906;2023-11-19T03:24:29;14.07;;;10.48;;
48122;SDS011;33907;47.426;18.906;2023-11-19T03:26:56;15.57;;;10.48;;
48122;SDS011;33907;47.426;18.906;2023-11-19T03:29:24;14.40;;;11.10;;
48122;SDS011;33907;47.426;18.906;2023-11-19T03:31:53;15.70;;;11.70;;
48122;SDS011;33907;47.426;18.906;2023-11-19T03:34:20;17.02;;;11.85;;
48122;SDS011;33907;47.426;18.906;2023-11-19T03:36:49;16.10;;;12.07;;
48122;SDS011;33907;47.426;18.906;2023-11-19T03:39:16;15.98;;;12.10;;
48122;SDS011;33907;47.426;18.906;2023-11-19T03:41:47;16.73;;;12.10;;
48122;SDS011;33907;47.426;18.906;2023-11-19T03:44:14;17.33;;;13.52;;
48122;SDS011;33907;47.426;18.906;2023-11-19T03:46:42;17.67;;;12.18;;
48122;SDS011;33907;47.426;18.906;2023-11-19T03:49:09;16.48;;;12.40;;
48122;SDS011;33907;47.426;18.906;2023-11-19T03:51:37;15.82;;;11.77;;
48122;SDS011;33907;47.426;18.906;2023-11-19T03:54:04;15.80;;;11.65;;
48122;SDS011;33907;47.426;18.906;2023-11-19T03:56:33;15.20;;;11.80;;
48122;SDS011;33907;47.426;18.906;2023-11-19T03:59:01;16.50;;;12.90;;
48122;SDS011;33907;47.426;18.906;2023-11-19T04:01:29;16.90;;;12.50;;
48122;SDS011;33907;47.426;18.906;2023-11-19T04:03:57;18.25;;;12.37;;
48122;SDS011;33907;47.426;18.906;2023-11-19T04:06:25;11.10;;;5.10;;
48122;SDS011;33907;47.426;18.906;2023-11-19T04:08:53;11.18;;;5.68;;
48122;SDS011;33907;47.426;18.906;2023-11-19T04:11:20;16.37;;;12.52;;
48122;SDS011;33907;47.426;18.906;2023-11-19T04:13:48;16.98;;;12.75;;
48122;SDS011;33907;47.426;18.906;2023-11-19T04:16:16;13.52;;;6.95;;
48122;SDS011;33907;47.426;18.906;2023-11-19T04:18:43;15.85;;;12.77;;
48122;SDS011;33907;47.426;18.906;2023-11-19T04:21:11;12.45;;;5.60;;
48122;SDS011;33907;47.426;18.906;2023-11-19T04:23:38;12.27;;;5.00;;
48122;SDS011;33907;47.426;18.906;2023-11-19T04:26:06;16.80;;;13.20;;
48122;SDS011;33907;47.426;18.906;2023-11-19T04:28:36;19.98;;;13.55;;
48122;SDS011;33907;47.426;18.906;2023-11-19T04:31:04;18.05;;;13.82;;
48122;SDS011;33907;47.426;18.906;2023-11-19T04:33:36;14.57;;;12.40;;
48122;SDS011;33907;47.426;18.906;2023-11-19T04:36:04;15.65;;;12.25;;
48122;SDS011;33907;47.426;18.906;2023-11-19T04:38:32;10.80;;;4.55;;
48122;SDS011;33907;47.426;18.906;2023-11-19T04:40:59;11.40;;;5.80;;
48122;SDS011;33907;47.426;18.906;2023-11-19T04:43:27;16.25;;;12.25;;
48122;SDS011;33907;47.426;18.906;2023-11-19T04:45:55;18.20;;;13.23;;
48122;SDS011;33907;47.426;18.906;2023-11-19T04:48:23;16.67;;;12.73;;
48122;SDS011;33907;47.426;18.906;2023-11-19T04:50:50;16.08;;;6.53;;
48122;SDS011;33907;47.426;18.906;2023-11-19T04:53:19;15.57;;;12.85;;
48122;SDS011;33907;47.426;18.906;2023-11-19T04:55:47;15.25;;;12.95;;
48122;SDS011;33907;47.426;18.906;2023-11-19T04:58:14;16.52;;;13.77;;
48122;SDS011;33907;47.426;18.906;2023-11-19T05:00:42;16.20;;;13.55;;
48122;SDS011;33907;47.426;18.906;2023-11-19T05:03:09;15.43;;;12.32;;
48122;SDS011;33907;47.426;18.906;2023-11-19T05:05:37;12.77;;;5.03;;
48122;SDS011;33907;47.426;18.906;2023-11-19T05:08:04;16.02;;;12.68;;
48122;SDS011;33907;47.426;18.906;2023-11-19T05:10:32;17.73;;;13.18;;
48122;SDS011;33907;47.426;18.906;2023-11-19T05:13:00;16.48;;;13.15;;
48122;SDS011;33907;47.426;18.906;2023-11-19T05:15:27;9.05;;;4.47;;
48122;SDS011;33907;47.426;18.906;2023-11-19T05:17:55;16.65;;;13.27;;
48122;SDS011;33907;47.426;18.906;2023-11-19T05:20:22;8.93;;;4.60;;
48122;SDS011;33907;47.426;18.906;2023-11-19T05:22:50;8.35;;;4.87;;
48122;SDS011;33907;47.426;18.906;2023-11-19T05:25:18;16.77;;;13.43;;
48122;SDS011;33907;47.426;18.906;2023-11-19T05:27:47;11.15;;;5.10;;
48122;SDS011;33907;47.426;18.906;2023-11-19T05:30:14;16.42;;;13.13;;
48122;SDS011;33907;47.426;18.906;2023-11-19T05:32:42;17.33;;;13.05;;
48122;SDS011;33907;47.426;18.906;2023-11-19T05:35:10;15.38;;;12.40;;
48122;SDS011;33907;47.426;18.906;2023-11-19T05:37:38;16.05;;;12.70;;
48122;SDS011;33907;47.426;18.906;2023-11-19T05:40:06;16.35;;;12.95;;
48122;SDS011;33907;47.426;18.906;2023-11-19T05:42:41;16.27;;;12.73;;
48122;SDS011;33907;47.426;18.906;2023-11-19T05:45:10;17.08;;;12.52;;
48122;SDS011;33907;47.426;18.906;2023-11-19T05:47:38;15.05;;;12.15;;
48122;SDS011;33907;47.426;18.906;2023-11-19T05:50:06;14.98;;;11.77;;
48122;SDS011;33907;47.426;18.906;2023-11-19T05:52:34;15.48;;;11.48;;
48122;SDS011;33907;47.426;18.906;2023-11-19T05:55:02;10.50;;;4.00;;
48122;SDS011;33907;47.426;18.906;2023-11-19T05:57:32;16.35;;;11.70;;
48122;SDS011;33907;47.426;18.906;2023-11-19T06:00:13;15.48;;;11.45;;
48122;SDS011;33907;47.426;18.906;2023-11-19T06:02:43;14.15;;;4.80;;
48122;SDS011;33907;47.426;18.906;2023-11-19T06:05:11;16.23;;;11.80;;
48122;SDS011;33907;47.426;18.906;2023-11-19T06:07:39;15.57;;;11.73;;
48122;SDS011;33907;47.426;18.906;2023-11-19T06:10:08;15.82;;;11.73;;
48122;SDS011;33907;47.426;18.906;2023-11-19T06:12:37;15.73;;;11.90;;
48122;SDS011;33907;47.426;18.906;2023-11-19T06:15:05;11.77;;;5.15;;
48122;SDS011;33907;47.426;18.906;2023-11-19T06:17:34;15.85;;;11.63;;
48122;SDS011;33907;47.426;18.906;2023-11-19T06:20:02;15.38;;;11.80;;
48122;SDS011;33907;47.426;18.906;2023-11-19T06:22:31;8.20;;;4.12;;
48122;SDS011;33907;47.426;18.906;2023-11-19T06:24:59;15.57;;;4.85;;
48122;SDS011;33907;47.426;18.906;2023-11-19T06:27:27;16.35;;;11.77;;
48122;SDS011;33907;47.426;18.906;2023-11-19T06:29:54;16.12;;;11.70;;
48122;SDS011;33907;47.426;18.906;2023-11-19T06:32:22;12.95;;;5.05;;
48122;SDS011;33907;47.426;18.906;2023-11-19T06:34:50;14.63;;;11.32;;
48122;SDS011;33907;47.426;18.906;2023-11-19T06:37:17;9.40;;;4.40;;
48122;SDS011;33907;47.426;18.906;2023-11-19T06:39:45;8.45;;;4.07;;
48122;SDS011;33907;47.426;18.906;2023-11-19T06:42:12;14.45;;;11.75;;
48122;SDS011;33907;47.426;18.906;2023-11-19T06:44:40;16.08;;;11.90;;
48122;SDS011;33907;47.426;18.906;2023-11-19T06:47:07;16.58;;;11.65;;
48122;SDS011;33907;47.426;18.906;2023-11-19T06:49:35;15.35;;;12.18;;
48122;SDS011;33907;47.426;18.906;2023-11-19T06:52:02;16.65;;;12.52;;
48122;SDS011;33907;47.426;18.906;2023-11-19T06:54:31;17.70;;;12.77;;
48122;SDS011;33907;47.426;18.906;2023-11-19T06:56:59;16.37;;;12.80;;
48122;SDS011;33907;47.426;18.906;2023-11-19T06:59:26;16.70;;;12.40;;
48122;SDS011;33907;47.426;18.906;2023-11-19T07:01:54;15.52;;;12.32;;
48122;SDS011;33907;47.426;18.906;2023-11-19T07:04:23;15.75;;;12.07;;
48122;SDS011;33907;47.426;18.906;2023-11-19T07:06:50;17.42;;;12.68;;
48122;SDS011;33907;47.426;18.906;2023-11-19T07:09:19;15.52;;;11.80;;
48122;SDS011;33907;47.426;18.906;2023-11-19T07:11:47;15.57;;;12.55;;
48122;SDS011;33907;47.426;18.906;2023-11-19T07:14:14;17.10;;;13.48;;
48122;SDS011;33907;47.426;18.906;2023-11-19T07:16:42;17.17;;;13.35;;
48122;SDS011;33907;47.426;18.906;2023-11-19T07:19:10;12.23;;;5.65;;
48122;SDS011;33907;47.426;18.906;2023-11-19T07:21:37;16.75;;;13.25;;
48122;SDS011;33907;47.426;18.906;2023-11-19T07:24:11;26.45;;;20.58;;
48122;SDS011;33907;47.426;18.906;2023-11-19T07:26:42;26.27;;;20.62;;
48122;SDS011;33907;47.426;18.906;2023-11-19T07:29:11;27.92;;;22.85;;
48122;SDS011;33907;47.426;18.906;2023-11-19T07:31:38;29.83;;;23.25;;
48122;SDS011;33907;47.426;18.906;2023-11-19T07:34:06;28.73;;;22.58;;
48122;SDS011;33907;47.426;18.906;2023-11-19T07:36:34;28.42;;;23.58;;
48122;SDS011;33907;47.426;18.906;2023-11-19T07:39:01;28.38;;;23.27;;
48122;SDS011;33907;47.426;18.906;2023-11-19T07:41:29;18.12;;;10.00;;
48122;SDS011;33907;47.426;18.906;2023-11-19T07:43:57;27.60;;;22.60;;
48122;SDS011;33907;47.426;18.906;2023-11-19T07:46:25;29.75;;;22.65;;
48122;SDS011;33907;47.426;18.906;2023-11-19T07:48:52;29.67;;;23.27;;
48122;SDS011;33907;47.426;18.906;2023-11-19T07:51:20;27.52;;;22.20;;
48122;SDS011;33907;47.426;18.906;2023-11-19T07:53:48;30.15;;;23.73;;
48122;SDS011;33907;47.426;18.906;2023-11-19T07:56:16;42.45;;;33.17;;
48122;SDS011;33907;47.426;18.906;2023-11-19T07:58:44;39.92;;;31.25;;
48122;SDS011;33907;47.426;18.906;2023-11-19T08:01:11;53.90;;;36.58;;
48122;SDS011;33907;47.426;18.906;2023-11-19T08:03:40;42.62;;;30.73;;
48122;SDS011;33907;47.426;18.906;2023-11-19T08:06:23;48.28;;;35.65;;
48122;SDS011;33907;47.426;18.906;2023-11-19T08:08:51;44.42;;;32.08;;
48122;SDS011;33907;47.426;18.906;2023-11-19T08:11:19;48.15;;;33.63;;
48122;SDS011;33907;47.426;18.906;2023-11-19T08:13:49;30.80;;;24.87;;
48122;SDS011;33907;47.426;18.906;2023-11-19T08:16:17;26.55;;;21.75;;
48122;SDS011;33907;47.426;18.906;2023-11-19T08:18:44;26.80;;;23.60;;
48122;SDS011;33907;47.426;18.906;2023-11-19T08:21:12;27.52;;;22.02;;
48122;SDS011;33907;47.426;18.906;2023-11-19T08:23:40;31.65;;;25.23;;
48122;SDS011;33907;47.426;18.906;2023-11-19T08:26:08;28.15;;;23.17;;
48122;SDS011;33907;47.426;18.906;2023-11-19T08:28:36;30.45;;;24.83;;
48122;SDS011;33907;47.426;18.906;2023-11-19T08:31:04;27.65;;;23.40;;
48122;SDS011;33907;47.426;18.906;2023-11-19T08:33:32;22.48;;;13.13;;
48122;SDS011;33907;47.426;18.906;2023-11-19T08:35:59;27.98;;;22.83;;
48122;SDS011;33907;47.426;18.906;2023-11-19T08:38:28;27.83;;;23.20;;
48122;SDS011;33907;47.426;18.906;2023-11-19T08:40:58;26.98;;;22.45;;
48122;SDS011;33907;47.426;18.906;2023-11-19T08:43:27;26.60;;;20.95;;
48122;SDS011;33907;47.426;18.906;2023-11-19T08:45:55;25.17;;;20.52;;
48122;SDS011;33907;47.426;18.906;2023-11-19T08:48:22;23.15;;;19.25;;
48122;SDS011;33907;47.426;18.906;2023-11-19T08:50:50;25.77;;;21.00;;
48122;SDS011;33907;47.426;18.906;2023-11-19T08:53:18;25.92;;;20.77;;
48122;SDS011;33907;47.426;18.906;2023-11-19T08:55:45;30.20;;;23.70;;
48122;SDS011;33907;47.426;18.906;2023-11-19T08:58:13;28.35;;;22.10;;
48122;SDS011;33907;47.426;18.906;2023-11-19T09:00:41;31.30;;;24.25;;
48122;SDS011;33907;47.426;18.906;2023-11-19T09:03:08;30.20;;;24.23;;
48122;SDS011;33907;47.426;18.906;2023-11-19T09:05:37;35.88;;;27.25;;
48122;SDS011;33907;47.426;18.906;2023-11-19T09:08:06;32.05;;;25.35;;
48122;SDS011;33907;47.426;18.906;2023-11-19T09:10:33;31.87;;;25.35;;
48122;SDS011;33907;47.426;18.906;2023-11-19T09:13:01;32.25;;;26.42;;
48122;SDS011;33907;47.426;18.906;2023-11-19T09:15:28;33.28;;;26.70;;
48122;SDS011;33907;47.426;18.906;2023-11-19T09:17:56;32.97;;;26.58;;
48122;SDS011;33907;47.426;18.906;2023-11-19T09:20:23;31.42;;;26.25;;
48122;SDS011;33907;47.426;18.906;2023-11-19T09:22:51;33.83;;;26.58;;
48122;SDS011;33907;47.426;18.906;2023-11-19T09:25:20;35.22;;;26.42;;
48122;SDS011;33907;47.426;18.906;2023-11-19T09:27:47;28.33;;;23.27;;
48122;SDS011;33907;47.426;18.906;2023-11-19T09:30:15;33.08;;;23.95;;
48122;SDS011;33907;47.426;18.906;2023-11-19T09:32:43;30.50;;;24.33;;
48122;SDS011;33907;47.426;18.906;2023-11-19T09:35:11;28.73;;;21.48;;
48122;SDS011;33907;47.426;18.906;2023-11-19T09:37:40;29.92;;;22.75;;
48122;SDS011;33907;47.426;18.906;2023-11-19T09:40:08;27.67;;;22.77;;
48122;SDS011;33907;47.426;18.906;2023-11-19T09:42:42;28.62;;;22.25;;
48122;SDS011;33907;47.426;18.906;2023-11-19T09:45:13;18.15;;;9.50;;
48122;SDS011;33907;47.426;18.906;2023-11-19T09:47:43;23.80;;;18.60;;
48122;SDS011;33907;47.426;18.906;2023-11-19T09:50:16;25.42;;;18.83;;
48122;SDS011;33907;47.426;18.906;2023-11-19T09:52:47;24.33;;;17.13;;
48122;SDS011;33907;47.426;18.906;2023-11-19T09:55:15;20.88;;;17.08;;
48122;SDS011;33907;47.426;18.906;2023-11-19T09:57:43;23.20;;;17.85;;
48122;SDS011;33907;47.426;18.906;2023-11-19T10:00:12;23.83;;;18.98;;
48122;SDS011;33907;47.426;18.906;2023-11-19T10:02:43;12.95;;;7.00;;
48122;SDS011;33907;47.426;18.906;2023-11-19T10:05:13;24.27;;;18.87;;
48122;SDS011;33907;47.426;18.906;2023-11-19T10:07:42;21.90;;;18.00;;
48122;SDS011;33907;47.426;18.906;2023-11-19T10:10:12;21.75;;;18.00;;
48122;SDS011;33907;47.426;18.906;2023-11-19T10:12:42;19.58;;;16.55;;
48122;SDS011;33907;47.426;18.906;2023-11-19T10:15:22;19.98;;;16.15;;
48122;SDS011;33907;47.426;18.906;2023-11-19T10:17:58;17.80;;;14.90;;
48122;SDS011;33907;47.426;18.906;2023-11-19T10:20:25;19.98;;;15.20;;
48122;SDS011;33907;47.426;18.906;2023-11-19T10:22:53;17.58;;;14.27;;
48122;SDS011;33907;47.426;18.906;2023-11-19T10:25:26;18.60;;;15.57;;
48122;SDS011;33907;47.426;18.906;2023-11-19T10:27:56;21.15;;;15.93;;
48122;SDS011;33907;47.426;18.906;2023-11-19T10:30:25;20.10;;;16.05;;
48122;SDS011;33907;47.426;18.906;2023-11-19T10:35:35;21.95;;;17.67;;
48122;SDS011;33907;47.426;18.906;2023-11-19T10:38:15;21.55;;;16.80;;
48122;SDS011;33907;47.426;18.906;2023-11-19T10:40:43;22.48;;;18.05;;
48122;SDS011;33907;47.426;18.906;2023-11-19T10:43:12;21.33;;;17.10;;
48122;SDS011;33907;47.426;18.906;2023-11-19T10:45:39;21.62;;;17.83;;
48122;SDS011;33907;47.426;18.906;2023-11-19T10:48:07;22.77;;;17.52;;
48122;SDS011;33907;47.426;18.906;2023-11-19T10:50:35;22.02;;;18.00;;
48122;SDS011;33907;47.426;18.906;2023-11-19T10:53:04;21.30;;;16.95;;
48122;SDS011;33907;47.426;18.906;2023-11-19T10:55:33;21.02;;;17.40;;
48122;SDS011;33907;47.426;18.906;2023-11-19T10:58:03;22.40;;;17.77;;
48122;SDS011;33907;47.426;18.906;2023-11-19T11:00:44;38.85;;;25.37;;
48122;SDS011;33907;47.426;18.906;2023-11-19T11:03:17;37.60;;;28.42;;
48122;SDS011;33907;47.426;18.906;2023-11-19T11:05:46;31.12;;;25.17;;
48122;SDS011;33907;47.426;18.906;2023-11-19T11:08:16;32.47;;;24.70;;
48122;SDS011;33907;47.426;18.906;2023-11-19T11:10:56;30.62;;;22.95;;
48122;SDS011;33907;47.426;18.906;2023-11-19T11:13:25;22.23;;;10.35;;
48122;SDS011;33907;47.426;18.906;2023-11-19T11:15:56;25.27;;;22.30;;
48122;SDS011;33907;47.426;18.906;2023-11-19T11:18:28;28.27;;;22.95;;
48122;SDS011;33907;47.426;18.906;2023-11-19T11:21:00;28.95;;;22.73;;
48122;SDS011;33907;47.426;18.906;2023-11-19T11:23:37;28.83;;;22.42;;
48122;SDS011;33907;47.426;18.906;2023-11-19T11:28:48;27.67;;;22.73;;
48122;SDS011;33907;47.426;18.906;2023-11-19T11:34:31;29.50;;;24.30;;
48122;SDS011;33907;47.426;18.906;2023-11-19T11:39:35;30.48;;;24.92;;
48122;SDS011;33907;47.426;18.906;2023-11-19T11:50:14;26.85;;;22.67;;
48122;SDS011;33907;47.426;18.906;2023-11-19T11:56:07;41.60;;;30.75;;
48122;SDS011;33907;47.426;18.906;2023-11-19T11:58:17;73.10;;;52.47;;
48122;SDS011;33907;47.426;18.906;2023-11-19T12:00:59;48.25;;;23.27;;
48122;SDS011;33907;47.426;18.906;2023-11-19T12:03:29;30.45;;;25.08;;
48122;SDS011;33907;47.426;18.906;2023-11-19T12:05:57;59.33;;;40.33;;
48122;SDS011;33907;47.426;18.906;2023-11-19T12:08:26;33.67;;;27.35;;
48122;SDS011;33907;47.426;18.906;2023-11-19T12:10:55;31.23;;;25.95;;
48122;SDS011;33907;47.426;18.906;2023-11-19T12:13:42;27.10;;;22.33;;
48122;SDS011;33907;47.426;18.906;2023-11-19T12:16:15;27.67;;;23.85;;
48122;SDS011;33907;47.426;18.906;2023-11-19T12:18:43;26.83;;;22.30;;
48122;SDS011;33907;47.426;18.906;2023-11-19T12:21:10;26.37;;;22.30;;
48122;SDS011;33907;47.426;18.906;2023-11-19T12:23:45;29.83;;;25.58;;
48122;SDS011;33907;47.426;18.906;2023-11-19T12:26:21;32.75;;;26.33;;
48122;SDS011;33907;47.426;18.906;2023-11-19T12:29:01;28.92;;;23.58;;
48122;SDS011;33907;47.426;18.906;2023-11-19T12:31:35;29.02;;;24.30;;
48122;SDS011;33907;47.426;18.906;2023-11-19T12:34:07;26.83;;;21.35;;
48122;SDS011;33907;47.426;18.906;2023-11-19T12:36:39;26.87;;;21.73;;
48122;SDS011;33907;47.426;18.906;2023-11-19T12:39:08;33.03;;;25.62;;
48122;SDS011;33907;47.426;18.906;2023-11-19T12:41:49;29.83;;;24.02;;
48122;SDS011;33907;47.426;18.906;2023-11-19T12:44:19;24.12;;;19.95;;
48122;SDS011;33907;47.426;18.906;2023-11-19T12:46:46;21.40;;;18.65;;
48122;SDS011;33907;47.426;18.906;2023-11-19T12:49:14;22.98;;;18.70;;
48122;SDS011;33907;47.426;18.906;2023-11-19T12:51:42;21.90;;;17.25;;
48122;SDS011;33907;47.426;18.906;2023-11-19T12:54:09;24.52;;;20.33;;
48122;SDS011;33907;47.426;18.906;2023-11-19T12:56:37;21.02;;;17.62;;
48122;SDS011;33907;47.426;18.906;2023-11-19T12:59:11;20.98;;;16.87;;
48122;SDS011;33907;47.426;18.906;2023-11-19T13:01:53;19.70;;;15.73;;
48122;SDS011;33907;47.426;18.906;2023-11-19T13:04:22;21.05;;;16.65;;
48122;SDS011;33907;47.426;18.906;2023-11-19T13:06:49;23.10;;;16.98;;
48122;SDS011;33907;47.426;18.906;2023-11-19T13:09:23;21.35;;;17.05;;
48122;SDS011;33907;47.426;18.906;2023-11-19T13:11:52;45.95;;;33.75;;
48122;SDS011;33907;47.426;18.906;2023-11-19T13:14:20;39.67;;;30.10;;
48122;SDS011;33907;47.426;18.906;2023-11-19T13:16:59;40.08;;;29.30;;
48122;SDS011;33907;47.426;18.906;2023-11-19T13:19:26;58.60;;;39.50;;
48122;SDS011;33907;47.426;18.906;2023-11-19T13:21:55;49.85;;;36.50;;
48122;SDS011;33907;47.426;18.906;2023-11-19T13:24:22;29.05;;;22.33;;
48122;SDS011;33907;47.426;18.906;2023-11-19T13:26:50;27.52;;;21.92;;
48122;SDS011;33907;47.426;18.906;2023-11-19T13:29:17;21.45;;;17.12;;
48122;SDS011;33907;47.426;18.906;2023-11-19T13:31:45;23.70;;;18.92;;
48122;SDS011;33907;47.426;18.906;2023-11-19T13:34:16;24.30;;;18.87;;
48122;SDS011;33907;47.426;18.906;2023-11-19T13:36:44;22.73;;;17.70;;
48122;SDS011;33907;47.426;18.906;2023-11-19T13:39:12;23.15;;;17.70;;
48122;SDS011;33907;47.426;18.906;2023-11-19T13:41:40;21.98;;;16.48;;
48122;SDS011;33907;47.426;18.906;2023-11-19T13:44:08;41.22;;;21.70;;
48122;SDS011;33907;47.426;18.906;2023-11-19T13:46:35;25.98;;;18.73;;
48122;SDS011;33907;47.426;18.906;2023-11-19T13:49:03;27.00;;;19.58;;
48122;SDS011;33907;47.426;18.906;2023-11-19T13:51:32;25.27;;;18.25;;
48122;SDS011;33907;47.426;18.906;2023-11-19T13:54:00;23.70;;;20.20;;
48122;SDS011;33907;47.426;18.906;2023-11-19T13:56:28;21.67;;;18.85;;
48122;SDS011;33907;47.426;18.906;2023-11-19T13:58:56;22.85;;;18.83;;
48122;SDS011;33907;47.426;18.906;2023-11-19T14:01:24;21.37;;;18.60;;
48122;SDS011;33907;47.426;18.906;2023-11-19T14:03:53;25.15;;;19.70;;
48122;SDS011;33907;47.426;18.906;2023-11-19T14:06:25;23.70;;;19.25;;
48122;SDS011;33907;47.426;18.906;2023-11-19T14:08:53;25.10;;;19.75;;
48122;SDS011;33907;47.426;18.906;2023-11-19T14:11:40;23.80;;;19.25;;
48122;SDS011;33907;47.426;18.906;2023-11-19T14:14:09;26.75;;;22.40;;
48122;SDS011;33907;47.426;18.906;2023-11-19T14:16:37;25.83;;;21.55;;
48122;SDS011;33907;47.426;18.906;2023-11-19T14:19:05;37.60;;;28.23;;
48122;SDS011;33907;47.426;18.906;2023-11-19T14:21:33;31.50;;;25.75;;
48122;SDS011;33907;47.426;18.906;2023-11-19T14:24:01;34.65;;;27.90;;
48122;SDS011;33907;47.426;18.906;2023-11-19T14:26:28;35.83;;;29.27;;
48122;SDS011;33907;47.426;18.906;2023-11-19T14:28:56;35.80;;;29.17;;
48122;SDS011;33907;47.426;18.906;2023-11-19T14:31:27;36.97;;;29.75;;
48122;SDS011;33907;47.426;18.906;2023-11-19T14:33:55;33.30;;;28.67;;
48122;SDS011;33907;47.426;18.906;2023-11-19T14:36:24;32.60;;;27.62;;
48122;SDS011;33907;47.426;18.906;2023-11-19T14:38:51;31.00;;;25.50;;
48122;SDS011;33907;47.426;18.906;2023-11-19T14:41:19;32.05;;;27.10;;
48122;SDS011;33907;47.426;18.906;2023-11-19T14:43:47;27.65;;;22.83;;